sensor_id;sensor_type;location;lat;lon;timestamp;pressure;altitude;pressure_sealevel;temperature;humidity
79004;BME280;68369;51.050;17.018;2023-04-06T00:01:13;100724.77;;;-0.50;71.89
79004;BME280;68369;51.050;17.018;2023-04-06T00:03:58;100725.77;;;-0.56;71.90
79004;BME280;68369;51.050;17.018;2023-04-06T00:06:44;100727.45;;;-0.58;72.16
79004;BME280;68369;51.050;17.018;2023-04-06T00:09:29;100725.60;;;-0.55;71.89
79004;BME280;68369;51.050;17.018;2023-04-06T00:12:14;100724.41;;;-0.52;71.81
79004;BME280;68369;51.050;17.018;2023-04-06T00:15:00;100724.61;;;-0.49;71.62
79004;BME280;68369;51.050;17.018;2023-04-06T00:17:46;100727.55;;;-0.47;71.38
79004;BME280;68369;51.050;17.018;2023-04-06T00:20:31;100725.84;;;-0.48;71.56
79004;BME280;68369;51.050;17.018;2023-04-06T00:23:16;100729.08;;;-0.50;71.35
79004;BME280;68369;51.050;17.018;2023-04-06T00:26:02;100724.41;;;-0.53;71.44
79004;BME280;68369;51.050;17.018;2023-04-06T00:28:47;100724.71;;;-0.58;71.33
79004;BME280;68369;51.050;17.018;2023-04-06T00:31:55;100722.42;;;-0.63;71.43
79004;BME280;68369;51.050;17.018;2023-04-06T00:34:42;100719.44;;;-0.70;71.46
79004;BME280;68369;51.050;17.018;2023-04-06T00:37:29;100718.34;;;-0.75;71.48
79004;BME280;68369;51.050;17.018;2023-04-06T00:40:16;100698.77;;;-0.89;71.47
79004;BME280;68369;51.050;17.018;2023-04-06T00:43:03;100704.98;;;-0.88;71.56
79004;BME280;68369;51.050;17.018;2023-04-06T00:45:49;100711.13;;;-0.91;71.46
79004;BME280;68369;51.050;17.018;2023-04-06T00:48:34;100709.70;;;-0.96;71.56
79004;BME280;68369;51.050;17.018;2023-04-06T00:51:20;100711.40;;;-0.97;71.60
79004;BME280;68369;51.050;17.018;2023-04-06T00:54:05;100711.61;;;-0.95;71.45
79004;BME280;68369;51.050;17.018;2023-04-06T00:56:50;100707.83;;;-0.94;71.43
79004;BME280;68369;51.050;17.018;2023-04-06T00:59:35;100710.27;;;-0.92;71.19
79004;BME280;68369;51.050;17.018;2023-04-06T01:02:20;100707.54;;;-0.90;71.43
79004;BME280;68369;51.050;17.018;2023-04-06T01:05:06;100710.10;;;-0.91;71.37
79004;BME280;68369;51.050;17.018;2023-04-06T01:07:51;100709.72;;;-0.95;71.13
79004;BME280;68369;51.050;17.018;2023-04-06T01:10:36;100707.61;;;-0.98;71.24
79004;BME280;68369;51.050;17.018;2023-04-06T01:13:22;100714.10;;;-1.02;71.24
79004;BME280;68369;51.050;17.018;2023-04-06T01:16:07;100713.04;;;-1.05;71.35
79004;BME280;68369;51.050;17.018;2023-04-06T01:18:53;100716.05;;;-1.12;71.53
79004;BME280;68369;51.050;17.018;2023-04-06T01:21:39;100721.34;;;-1.15;71.84
79004;BME280;68369;51.050;17.018;2023-04-06T01:24:24;100716.48;;;-1.20;71.82
79004;BME280;68369;51.050;17.018;2023-04-06T01:27:10;100719.17;;;-1.24;72.00
79004;BME280;68369;51.050;17.018;2023-04-06T01:29:57;100722.05;;;-1.27;72.09
79004;BME280;68369;51.050;17.018;2023-04-06T01:32:42;100719.08;;;-1.31;72.05
79004;BME280;68369;51.050;17.018;2023-04-06T01:35:28;100719.26;;;-1.31;72.13
79004;BME280;68369;51.050;17.018;2023-04-06T01:38:13;100717.54;;;-1.30;72.18
79004;BME280;68369;51.050;17.018;2023-04-06T01:40:59;100716.23;;;-1.26;72.11
79004;BME280;68369;51.050;17.018;2023-04-06T01:43:45;100715.23;;;-1.22;71.98
79004;BME280;68369;51.050;17.018;2023-04-06T01:46:30;100712.87;;;-1.20;71.77
79004;BME280;68369;51.050;17.018;2023-04-06T01:49:15;100710.60;;;-1.22;71.50
79004;BME280;68369;51.050;17.018;2023-04-06T01:52:01;100710.27;;;-1.22;71.47
79004;BME280;68369;51.050;17.018;2023-04-06T01:54:46;100711.59;;;-1.25;71.57
79004;BME280;68369;51.050;17.018;2023-04-06T02:00:24;100712.00;;;-1.34;71.74
79004;BME280;68369;51.050;17.018;2023-04-06T02:03:11;100709.39;;;-1.38;71.64
79004;BME280;68369;51.050;17.018;2023-04-06T02:05:58;100702.03;;;-1.49;71.40
79004;BME280;68369;51.050;17.018;2023-04-06T02:08:44;100707.04;;;-1.47;71.42
79004;BME280;68369;51.050;17.018;2023-04-06T02:11:30;100704.89;;;-1.54;71.67
79004;BME280;68369;51.050;17.018;2023-04-06T02:14:15;100708.08;;;-1.59;71.82
79004;BME280;68369;51.050;17.018;2023-04-06T02:17:00;100707.00;;;-1.62;71.78
79004;BME280;68369;51.050;17.018;2023-04-06T02:19:46;100705.40;;;-1.67;71.89
79004;BME280;68369;51.050;17.018;2023-04-06T02:22:31;100703.12;;;-1.70;71.84
79004;BME280;68369;51.050;17.018;2023-04-06T02:25:16;100698.99;;;-1.71;72.05
79004;BME280;68369;51.050;17.018;2023-04-06T02:28:02;100699.72;;;-1.68;72.15
79004;BME280;68369;51.050;17.018;2023-04-06T02:33:25;100702.40;;;-1.60;71.80
79004;BME280;68369;51.050;17.018;2023-04-06T02:36:12;100696.38;;;-1.61;71.67
79004;BME280;68369;51.050;17.018;2023-04-06T02:38:59;100705.84;;;-1.59;71.85
79004;BME280;68369;51.050;17.018;2023-04-06T02:41:46;100706.02;;;-1.59;71.84
79004;BME280;68369;51.050;17.018;2023-04-06T02:44:31;100706.51;;;-1.60;71.79
79004;BME280;68369;51.050;17.018;2023-04-06T02:47:16;100709.25;;;-1.62;71.81
79004;BME280;68369;51.050;17.018;2023-04-06T02:50:02;100710.24;;;-1.65;71.71
79004;BME280;68369;51.050;17.018;2023-04-06T02:55:25;100718.39;;;-1.71;71.78
79004;BME280;68369;51.050;17.018;2023-04-06T02:58:12;100719.51;;;-1.76;71.89
79004;BME280;68369;51.050;17.018;2023-04-06T03:00:58;100723.94;;;-1.79;71.85
79004;BME280;68369;51.050;17.018;2023-04-06T03:03:43;100728.85;;;-1.83;71.86
79004;BME280;68369;51.050;17.018;2023-04-06T03:06:29;100725.90;;;-1.86;72.14
79004;BME280;68369;51.050;17.018;2023-04-06T03:09:32;100727.45;;;-1.85;72.14
79004;BME280;68369;51.050;17.018;2023-04-06T03:12:24;100717.44;;;-1.89;72.03
79004;BME280;68369;51.050;17.018;2023-04-06T03:15:11;100729.59;;;-1.79;71.98
79004;BME280;68369;51.050;17.018;2023-04-06T03:17:57;100731.71;;;-1.75;72.05
79004;BME280;68369;51.050;17.018;2023-04-06T03:20:45;100731.93;;;-1.72;72.06
79004;BME280;68369;51.050;17.018;2023-04-06T03:23:31;100737.27;;;-1.71;72.14
79004;BME280;68369;51.050;17.018;2023-04-06T03:26:17;100737.78;;;-1.71;72.01
79004;BME280;68369;51.050;17.018;2023-04-06T03:29:02;100738.60;;;-1.74;72.05
79004;BME280;68369;51.050;17.018;2023-04-06T03:31:47;100742.67;;;-1.76;71.89
79004;BME280;68369;51.050;17.018;2023-04-06T03:34:33;100743.14;;;-1.79;71.64
79004;BME280;68369;51.050;17.018;2023-04-06T03:37:18;100741.52;;;-1.84;71.46
79004;BME280;68369;51.050;17.018;2023-04-06T03:40:04;100744.55;;;-1.88;71.53
79004;BME280;68369;51.050;17.018;2023-04-06T03:42:49;100745.52;;;-1.93;71.48
79004;BME280;68369;51.050;17.018;2023-04-06T03:45:34;100747.84;;;-1.98;71.48
79004;BME280;68369;51.050;17.018;2023-04-06T03:48:19;100747.23;;;-2.04;71.62
79004;BME280;68369;51.050;17.018;2023-04-06T03:51:07;100755.56;;;-2.09;71.76
79004;BME280;68369;51.050;17.018;2023-04-06T03:53:52;100757.21;;;-2.13;71.89
79004;BME280;68369;51.050;17.018;2023-04-06T03:56:37;100757.98;;;-2.17;71.91
79004;BME280;68369;51.050;17.018;2023-04-06T03:59:22;100758.33;;;-2.18;71.86
79004;BME280;68369;51.050;17.018;2023-04-06T04:02:07;100758.18;;;-2.15;72.07
79004;BME280;68369;51.050;17.018;2023-04-06T04:04:52;100764.78;;;-2.11;72.07
79004;BME280;68369;51.050;17.018;2023-04-06T04:07:37;100763.31;;;-2.06;72.01
79004;BME280;68369;51.050;17.018;2023-04-06T04:10:23;100765.61;;;-2.03;71.64
79004;BME280;68369;51.050;17.018;2023-04-06T04:13:08;100764.27;;;-2.01;71.65
79004;BME280;68369;51.050;17.018;2023-04-06T04:15:54;100761.67;;;-2.02;71.53
79004;BME280;68369;51.050;17.018;2023-04-06T04:18:39;100762.30;;;-2.05;71.26
79004;BME280;68369;51.050;17.018;2023-04-06T04:21:24;100758.98;;;-2.09;71.25
79004;BME280;68369;51.050;17.018;2023-04-06T04:24:11;100756.17;;;-2.13;71.51
79004;BME280;68369;51.050;17.018;2023-04-06T04:26:56;100757.48;;;-2.16;71.45
79004;BME280;68369;51.050;17.018;2023-04-06T04:29:42;100758.63;;;-2.21;71.73
79004;BME280;68369;51.050;17.018;2023-04-06T04:32:28;100762.20;;;-2.22;71.72
79004;BME280;68369;51.050;17.018;2023-04-06T04:35:13;100761.33;;;-2.23;71.76
79004;BME280;68369;51.050;17.018;2023-04-06T04:37:59;100758.23;;;-2.24;71.96
79004;BME280;68369;51.050;17.018;2023-04-06T04:40:44;100760.30;;;-2.23;72.12
79004;BME280;68369;51.050;17.018;2023-04-06T04:43:29;100755.85;;;-2.22;72.23
79004;BME280;68369;51.050;17.018;2023-04-06T04:46:17;100757.65;;;-2.17;72.27
79004;BME280;68369;51.050;17.018;2023-04-06T04:49:02;100756.73;;;-2.10;72.61
79004;BME280;68369;51.050;17.018;2023-04-06T04:51:47;100764.13;;;-1.99;72.83
79004;BME280;68369;51.050;17.018;2023-04-06T04:54:43;100765.35;;;-1.86;73.00
79004;BME280;68369;51.050;17.018;2023-04-06T04:57:28;100761.44;;;-1.72;73.47
79004;BME280;68369;51.050;17.018;2023-04-06T05:00:13;100768.81;;;-1.62;73.70
79004;BME280;68369;51.050;17.018;2023-04-06T05:02:59;100769.11;;;-1.52;73.99
79004;BME280;68369;51.050;17.018;2023-04-06T05:05:44;100767.52;;;-1.44;73.94
79004;BME280;68369;51.050;17.018;2023-04-06T05:08:29;100765.55;;;-1.37;74.00
79004;BME280;68369;51.050;17.018;2023-04-06T05:11:15;100763.05;;;-1.30;74.02
79004;BME280;68369;51.050;17.018;2023-04-06T05:14:00;100764.20;;;-1.22;74.19
79004;BME280;68369;51.050;17.018;2023-04-06T05:16:46;100765.66;;;-1.15;74.40
79004;BME280;68369;51.050;17.018;2023-04-06T05:19:32;100766.76;;;-1.09;74.63
79004;BME280;68369;51.050;17.018;2023-04-06T05:22:17;100770.11;;;-1.03;74.77
79004;BME280;68369;51.050;17.018;2023-04-06T05:25:03;100769.52;;;-0.95;74.88
79004;BME280;68369;51.050;17.018;2023-04-06T05:27:48;100769.98;;;-0.85;74.85
79004;BME280;68369;51.050;17.018;2023-04-06T05:30:34;100776.83;;;-0.72;74.88
79004;BME280;68369;51.050;17.018;2023-04-06T05:33:20;100779.89;;;-0.59;74.62
79004;BME280;68369;51.050;17.018;2023-04-06T05:36:05;100777.77;;;-0.49;74.30
79004;BME280;68369;51.050;17.018;2023-04-06T05:38:51;100779.21;;;-0.40;74.60
79004;BME280;68369;51.050;17.018;2023-04-06T05:41:37;100779.45;;;-0.33;74.16
79004;BME280;68369;51.050;17.018;2023-04-06T05:44:22;100780.92;;;-0.24;74.15
79004;BME280;68369;51.050;17.018;2023-04-06T05:47:07;100780.65;;;-0.15;74.08
79004;BME280;68369;51.050;17.018;2023-04-06T05:49:53;100780.20;;;-0.10;74.04
79004;BME280;68369;51.050;17.018;2023-04-06T05:52:39;100779.55;;;-0.05;73.80
79004;BME280;68369;51.050;17.018;2023-04-06T05:55:27;100780.63;;;0.01;73.77
79004;BME280;68369;51.050;17.018;2023-04-06T05:58:13;100780.48;;;0.04;73.88
79004;BME280;68369;51.050;17.018;2023-04-06T06:00:59;100781.20;;;0.10;73.70
79004;BME280;68369;51.050;17.018;2023-04-06T06:03:44;100781.79;;;0.19;73.89
79004;BME280;68369;51.050;17.018;2023-04-06T06:06:29;100783.27;;;0.33;73.66
79004;BME280;68369;51.050;17.018;2023-04-06T06:09:17;100780.95;;;0.48;73.62
79004;BME280;68369;51.050;17.018;2023-04-06T06:12:28;100780.03;;;0.65;73.38
79004;BME280;68369;51.050;17.018;2023-04-06T06:15:15;100781.67;;;0.81;73.21
79004;BME280;68369;51.050;17.018;2023-04-06T06:18:00;100781.04;;;0.91;73.02
79004;BME280;68369;51.050;17.018;2023-04-06T06:20:46;100780.55;;;1.00;73.16
79004;BME280;68369;51.050;17.018;2023-04-06T06:23:32;100778.69;;;1.07;73.06
79004;BME280;68369;51.050;17.018;2023-04-06T06:26:17;100783.20;;;1.16;72.72
79004;BME280;68369;51.050;17.018;2023-04-06T06:29:03;100780.80;;;1.20;72.88
79004;BME280;68369;51.050;17.018;2023-04-06T06:31:50;100778.75;;;1.25;72.94
79004;BME280;68369;51.050;17.018;2023-04-06T06:34:35;100776.70;;;1.30;72.92
79004;BME280;68369;51.050;17.018;2023-04-06T06:37:20;100773.77;;;1.35;72.67
79004;BME280;68369;51.050;17.018;2023-04-06T06:40:06;100774.46;;;1.38;72.98
79004;BME280;68369;51.050;17.018;2023-04-06T06:42:52;100769.48;;;1.42;72.89
79004;BME280;68369;51.050;17.018;2023-04-06T06:48:30;100777.11;;;1.62;72.25
79004;BME280;68369;51.050;17.018;2023-04-06T06:51:15;100779.73;;;1.72;72.50
79004;BME280;68369;51.050;17.018;2023-04-06T06:54:00;100775.76;;;1.81;72.52
79004;BME280;68369;51.050;17.018;2023-04-06T06:56:45;100774.38;;;1.89;72.47
79004;BME280;68369;51.050;17.018;2023-04-06T06:59:31;100775.24;;;1.97;72.63
79004;BME280;68369;51.050;17.018;2023-04-06T07:02:16;100771.10;;;2.06;72.69
79004;BME280;68369;51.050;17.018;2023-04-06T07:05:02;100772.65;;;2.19;72.01
79004;BME280;68369;51.050;17.018;2023-04-06T07:08:01;100769.52;;;2.34;71.71
79004;BME280;68369;51.050;17.018;2023-04-06T07:10:46;100770.36;;;2.49;71.84
79004;BME280;68369;51.050;17.018;2023-04-06T07:13:31;100768.09;;;2.63;71.75
79004;BME280;68369;51.050;17.018;2023-04-06T07:16:16;100767.02;;;2.75;71.80
79004;BME280;68369;51.050;17.018;2023-04-06T07:19:01;100773.89;;;2.88;71.68
79004;BME280;68369;51.050;17.018;2023-04-06T07:21:47;100772.10;;;3.03;71.56
79004;BME280;68369;51.050;17.018;2023-04-06T07:27:27;100778.21;;;3.29;71.06
79004;BME280;68369;51.050;17.018;2023-04-06T07:30:13;100780.36;;;3.48;70.89
79004;BME280;68369;51.050;17.018;2023-04-06T07:33:00;100776.36;;;3.79;70.57
79004;BME280;68369;51.050;17.018;2023-04-06T07:35:47;100783.27;;;4.24;69.44
79004;BME280;68369;51.050;17.018;2023-04-06T07:38:33;100783.94;;;4.62;68.92
79004;BME280;68369;51.050;17.018;2023-04-06T07:41:18;100783.13;;;4.75;68.27
79004;BME280;68369;51.050;17.018;2023-04-06T07:44:04;100782.80;;;4.89;68.33
79004;BME280;68369;51.050;17.018;2023-04-06T07:49:57;100785.70;;;6.07;66.84
79004;BME280;68369;51.050;17.018;2023-04-06T07:52:43;100783.74;;;6.42;65.11
79004;BME280;68369;51.050;17.018;2023-04-06T07:55:28;100782.83;;;6.72;63.82
79004;BME280;68369;51.050;17.018;2023-04-06T07:58:13;100777.55;;;6.75;62.87
79004;BME280;68369;51.050;17.018;2023-04-06T08:03:45;100779.83;;;6.65;61.74
79004;BME280;68369;51.050;17.018;2023-04-06T08:06:32;100778.63;;;6.56;61.29
79004;BME280;68369;51.050;17.018;2023-04-06T08:09:19;100774.98;;;6.45;60.12
79004;BME280;68369;51.050;17.018;2023-04-06T08:12:05;100779.34;;;6.35;59.95
79004;BME280;68369;51.050;17.018;2023-04-06T08:14:52;100778.40;;;6.29;59.64
79004;BME280;68369;51.050;17.018;2023-04-06T08:17:37;100779.23;;;6.21;58.92
79004;BME280;68369;51.050;17.018;2023-04-06T08:20:22;100780.36;;;6.16;59.00
79004;BME280;68369;51.050;17.018;2023-04-06T08:23:08;100781.63;;;6.12;57.88
79004;BME280;68369;51.050;17.018;2023-04-06T08:25:54;100781.01;;;6.08;56.36
79004;BME280;68369;51.050;17.018;2023-04-06T08:28:41;100782.35;;;6.10;55.93
79004;BME280;68369;51.050;17.018;2023-04-06T08:31:28;100778.36;;;6.10;55.28
79004;BME280;68369;51.050;17.018;2023-04-06T08:34:13;100777.51;;;6.09;54.86
79004;BME280;68369;51.050;17.018;2023-04-06T08:36:59;100779.39;;;6.12;54.41
79004;BME280;68369;51.050;17.018;2023-04-06T08:39:45;100777.67;;;6.20;54.33
79004;BME280;68369;51.050;17.018;2023-04-06T08:42:39;100780.48;;;6.29;53.96
79004;BME280;68369;51.050;17.018;2023-04-06T08:45:25;100779.61;;;6.39;53.52
79004;BME280;68369;51.050;17.018;2023-04-06T08:48:11;100773.83;;;6.52;52.43
79004;BME280;68369;51.050;17.018;2023-04-06T08:50:57;100778.08;;;6.65;51.84
79004;BME280;68369;51.050;17.018;2023-04-06T08:53:42;100774.88;;;6.78;51.73
79004;BME280;68369;51.050;17.018;2023-04-06T08:56:28;100776.05;;;6.98;52.38
79004;BME280;68369;51.050;17.018;2023-04-06T08:59:14;100774.84;;;7.23;51.26
79004;BME280;68369;51.050;17.018;2023-04-06T09:02:03;100773.30;;;7.47;50.69
79004;BME280;68369;51.050;17.018;2023-04-06T09:04:52;100772.73;;;7.71;50.44
79004;BME280;68369;51.050;17.018;2023-04-06T09:07:38;100774.31;;;7.93;49.18
79004;BME280;68369;51.050;17.018;2023-04-06T09:10:23;100775.27;;;8.11;48.27
79004;BME280;68369;51.050;17.018;2023-04-06T09:13:10;100773.05;;;8.30;48.26
79004;BME280;68369;51.050;17.018;2023-04-06T09:16:03;100771.52;;;8.50;47.87
79004;BME280;68369;51.050;17.018;2023-04-06T09:18:49;100765.48;;;8.74;47.30
79004;BME280;68369;51.050;17.018;2023-04-06T09:21:35;100762.35;;;8.98;46.64
79004;BME280;68369;51.050;17.018;2023-04-06T09:27:15;100758.36;;;9.27;44.61
79004;BME280;68369;51.050;17.018;2023-04-06T09:30:06;100744.14;;;9.41;44.37
79004;BME280;68369;51.050;17.018;2023-04-06T09:32:54;100751.33;;;9.68;43.44
79004;BME280;68369;51.050;17.018;2023-04-06T09:35:49;100755.38;;;9.90;42.51
79004;BME280;68369;51.050;17.018;2023-04-06T09:38:36;100752.18;;;10.02;41.31
79004;BME280;68369;51.050;17.018;2023-04-06T09:41:27;100746.91;;;10.03;41.53
79004;BME280;68369;51.050;17.018;2023-04-06T09:47:29;100748.30;;;10.55;40.66
79004;BME280;68369;51.050;17.018;2023-04-06T09:50:19;100739.46;;;10.72;40.01
79004;BME280;68369;51.050;17.018;2023-04-06T09:53:04;100738.77;;;10.91;39.82
79004;BME280;68369;51.050;17.018;2023-04-06T09:55:51;100740.90;;;11.09;39.81
79004;BME280;68369;51.050;17.018;2023-04-06T10:04:56;100742.57;;;10.97;38.53
79004;BME280;68369;51.050;17.018;2023-04-06T10:07:42;100739.50;;;10.85;38.26
79004;BME280;68369;51.050;17.018;2023-04-06T10:10:44;100736.36;;;10.99;37.87
79004;BME280;68369;51.050;17.018;2023-04-06T10:16:23;100733.33;;;11.33;37.16
79004;BME280;68369;51.050;17.018;2023-04-06T10:22:51;100734.58;;;11.86;37.70
79004;BME280;68369;51.050;17.018;2023-04-06T10:28:50;100726.11;;;12.74;36.02
79004;BME280;68369;51.050;17.018;2023-04-06T10:31:42;100709.58;;;12.82;34.43
79004;BME280;68369;51.050;17.018;2023-04-06T10:34:34;100719.77;;;12.93;34.31
79004;BME280;68369;51.050;17.018;2023-04-06T10:37:23;100717.45;;;13.06;34.58
79004;BME280;68369;51.050;17.018;2023-04-06T10:40:19;100716.10;;;13.16;35.69
79004;BME280;68369;51.050;17.018;2023-04-06T10:43:08;100712.96;;;13.39;35.05
79004;BME280;68369;51.050;17.018;2023-04-06T10:45:59;100710.89;;;13.56;34.50
79004;BME280;68369;51.050;17.018;2023-04-06T10:48:45;100710.89;;;13.66;33.37
79004;BME280;68369;51.050;17.018;2023-04-06T10:51:37;100704.21;;;13.59;32.51
79004;BME280;68369;51.050;17.018;2023-04-06T10:54:24;100710.59;;;13.58;32.54
79004;BME280;68369;51.050;17.018;2023-04-06T10:57:12;100702.00;;;13.61;33.10
79004;BME280;68369;51.050;17.018;2023-04-06T11:02:59;100702.56;;;13.97;32.57
79004;BME280;68369;51.050;17.018;2023-04-06T11:08:39;100694.43;;;13.69;32.33
79004;BME280;68369;51.050;17.018;2023-04-06T11:11:27;100693.30;;;13.52;33.25
79004;BME280;68369;51.050;17.018;2023-04-06T11:14:14;100686.55;;;13.50;33.12
79004;BME280;68369;51.050;17.018;2023-04-06T11:17:00;100684.61;;;13.35;33.73
79004;BME280;68369;51.050;17.018;2023-04-06T11:19:47;100683.20;;;13.12;33.59
79004;BME280;68369;51.050;17.018;2023-04-06T11:22:32;100683.78;;;13.11;33.34
79004;BME280;68369;51.050;17.018;2023-04-06T11:25:18;100684.77;;;13.13;33.52
79004;BME280;68369;51.050;17.018;2023-04-06T11:28:03;100679.00;;;13.27;32.71
79004;BME280;68369;51.050;17.018;2023-04-06T11:30:49;100672.70;;;13.45;32.80
79004;BME280;68369;51.050;17.018;2023-04-06T11:33:46;100671.25;;;13.43;32.73
79004;BME280;68369;51.050;17.018;2023-04-06T11:36:35;100665.61;;;13.20;32.99
79004;BME280;68369;51.050;17.018;2023-04-06T11:46:09;100662.02;;;13.59;33.12
79004;BME280;68369;51.050;17.018;2023-04-06T11:51:39;100659.06;;;14.00;31.89
79004;BME280;68369;51.050;17.018;2023-04-06T11:54:37;100664.69;;;13.76;31.86
79004;BME280;68369;51.050;17.018;2023-04-06T11:57:24;100659.50;;;13.49;32.42
79004;BME280;68369;51.050;17.018;2023-04-06T12:00:12;100661.58;;;13.54;32.52
79004;BME280;68369;51.050;17.018;2023-04-06T12:03:02;100658.76;;;13.68;32.57
79004;BME280;68369;51.050;17.018;2023-04-06T12:05:48;100655.43;;;13.85;32.05
79004;BME280;68369;51.050;17.018;2023-04-06T12:08:35;100651.40;;;14.06;32.04
79004;BME280;68369;51.050;17.018;2023-04-06T12:11:38;100646.50;;;14.26;31.83
79004;BME280;68369;51.050;17.018;2023-04-06T12:14:24;100634.05;;;14.41;30.95
79004;BME280;68369;51.050;17.018;2023-04-06T12:19:52;100629.88;;;14.54;30.78
79004;BME280;68369;51.050;17.018;2023-04-06T12:22:39;100625.80;;;14.54;30.29
79004;BME280;68369;51.050;17.018;2023-04-06T12:28:18;100621.45;;;14.16;29.76
79004;BME280;68369;51.050;17.018;2023-04-06T12:37:29;100611.13;;;14.11;30.73
79004;BME280;68369;51.050;17.018;2023-04-06T12:40:15;100606.64;;;14.13;30.53
79004;BME280;68369;51.050;17.018;2023-04-06T12:43:02;100601.03;;;14.23;30.66
79004;BME280;68369;51.050;17.018;2023-04-06T12:45:47;100598.38;;;14.33;30.83
79004;BME280;68369;51.050;17.018;2023-04-06T12:48:32;100598.85;;;14.44;30.87
79004;BME280;68369;51.050;17.018;2023-04-06T12:51:17;100601.45;;;14.51;30.80
79004;BME280;68369;51.050;17.018;2023-04-06T12:54:02;100597.23;;;14.54;30.57
79004;BME280;68369;51.050;17.018;2023-04-06T12:56:47;100590.77;;;14.57;30.56
79004;BME280;68369;51.050;17.018;2023-04-06T13:02:48;100588.69;;;14.59;30.23
79004;BME280;68369;51.050;17.018;2023-04-06T13:05:35;100576.41;;;14.58;30.14
79004;BME280;68369;51.050;17.018;2023-04-06T13:08:22;100577.89;;;14.57;30.05
79004;BME280;68369;51.050;17.018;2023-04-06T13:11:07;100580.61;;;14.59;30.15
79004;BME280;68369;51.050;17.018;2023-04-06T13:13:53;100577.71;;;14.61;29.93
79004;BME280;68369;51.050;17.018;2023-04-06T13:16:39;100571.06;;;14.63;29.78
79004;BME280;68369;51.050;17.018;2023-04-06T13:19:24;100568.83;;;14.65;30.26
79004;BME280;68369;51.050;17.018;2023-04-06T13:25:44;100557.77;;;14.67;29.48
79004;BME280;68369;51.050;17.018;2023-04-06T13:28:30;100558.42;;;14.74;29.82
79004;BME280;68369;51.050;17.018;2023-04-06T13:31:15;100558.58;;;14.78;30.12
79004;BME280;68369;51.050;17.018;2023-04-06T13:34:01;100557.39;;;14.77;29.62
79004;BME280;68369;51.050;17.018;2023-04-06T13:36:47;100555.95;;;14.68;28.87
79004;BME280;68369;51.050;17.018;2023-04-06T13:39:32;100552.85;;;14.51;28.77
79004;BME280;68369;51.050;17.018;2023-04-06T13:42:19;100558.38;;;14.37;29.07
79004;BME280;68369;51.050;17.018;2023-04-06T13:45:05;100556.49;;;14.35;29.53
79004;BME280;68369;51.050;17.018;2023-04-06T13:47:50;100553.27;;;14.46;29.98
79004;BME280;68369;51.050;17.018;2023-04-06T13:50:35;100547.92;;;14.57;29.70
79004;BME280;68369;51.050;17.018;2023-04-06T13:53:20;100549.24;;;14.72;29.85
79004;BME280;68369;51.050;17.018;2023-04-06T13:56:07;100551.02;;;14.84;29.28
79004;BME280;68369;51.050;17.018;2023-04-06T13:58:56;100551.70;;;14.97;28.98
79004;BME280;68369;51.050;17.018;2023-04-06T14:01:41;100549.77;;;15.13;28.02
79004;BME280;68369;51.050;17.018;2023-04-06T14:04:27;100546.67;;;15.51;27.49
79004;BME280;68369;51.050;17.018;2023-04-06T14:10:13;100541.56;;;17.34;26.13
79004;BME280;68369;51.050;17.018;2023-04-06T14:15:54;100542.73;;;19.54;23.76
79004;BME280;68369;51.050;17.018;2023-04-06T14:18:42;100537.54;;;20.70;22.98
79004;BME280;68369;51.050;17.018;2023-04-06T14:21:28;100535.29;;;21.56;22.18
79004;BME280;68369;51.050;17.018;2023-04-06T14:24:14;100530.48;;;22.18;21.19
79004;BME280;68369;51.050;17.018;2023-04-06T14:33:02;100531.98;;;21.90;20.61
79004;BME280;68369;51.050;17.018;2023-04-06T14:38:28;100526.05;;;20.76;21.35
79004;BME280;68369;51.050;17.018;2023-04-06T14:41:22;100523.43;;;20.20;21.29
79004;BME280;68369;51.050;17.018;2023-04-06T14:44:07;100526.95;;;19.51;22.07
79004;BME280;68369;51.050;17.018;2023-04-06T14:46:57;100530.57;;;18.62;22.81
79004;BME280;68369;51.050;17.018;2023-04-06T14:49:42;100523.91;;;17.88;23.51
79004;BME280;68369;51.050;17.018;2023-04-06T14:52:27;100518.80;;;17.28;24.16
79004;BME280;68369;51.050;17.018;2023-04-06T14:55:13;100517.85;;;16.69;25.03
79004;BME280;68369;51.050;17.018;2023-04-06T14:57:58;100515.41;;;16.18;25.87
79004;BME280;68369;51.050;17.018;2023-04-06T15:00:45;100520.33;;;15.78;26.08
79004;BME280;68369;51.050;17.018;2023-04-06T15:06:13;100515.48;;;15.26;26.39
79004;BME280;68369;51.050;17.018;2023-04-06T15:09:00;100519.88;;;14.92;26.99
79004;BME280;68369;51.050;17.018;2023-04-06T15:11:45;100520.08;;;14.73;27.32
79004;BME280;68369;51.050;17.018;2023-04-06T15:14:31;100514.80;;;14.83;26.94
79004;BME280;68369;51.050;17.018;2023-04-06T15:17:17;100515.17;;;14.60;27.11
79004;BME280;68369;51.050;17.018;2023-04-06T15:20:04;100512.80;;;14.26;27.73
79004;BME280;68369;51.050;17.018;2023-04-06T15:22:49;100509.31;;;13.99;27.81
79004;BME280;68369;51.050;17.018;2023-04-06T15:25:34;100508.53;;;13.78;28.69
79004;BME280;68369;51.050;17.018;2023-04-06T15:28:20;100501.13;;;13.61;29.08
79004;BME280;68369;51.050;17.018;2023-04-06T15:31:15;100506.45;;;13.40;30.03
79004;BME280;68369;51.050;17.018;2023-04-06T15:34:20;100501.55;;;13.17;29.27
79004;BME280;68369;51.050;17.018;2023-04-06T15:37:05;100499.41;;;13.01;29.37
79004;BME280;68369;51.050;17.018;2023-04-06T15:45:59;100499.23;;;12.50;30.16
79004;BME280;68369;51.050;17.018;2023-04-06T15:48:48;100500.18;;;12.33;30.29
79004;BME280;68369;51.050;17.018;2023-04-06T15:51:36;100484.25;;;12.09;31.10
79004;BME280;68369;51.050;17.018;2023-04-06T15:54:42;100497.10;;;12.00;30.98
79004;BME280;68369;51.050;17.018;2023-04-06T15:57:27;100495.62;;;11.78;31.26
79004;BME280;68369;51.050;17.018;2023-04-06T16:03:05;100493.23;;;11.44;32.12
79004;BME280;68369;51.050;17.018;2023-04-06T16:05:52;100496.07;;;11.27;32.36